sensor_id;sensor_type;location;lat;lon;timestamp;P1;durP1;ratioP1;P2;durP2;ratioP2
42196;SDS011;27866;48.146;17.098;2023-03-01T00:02:43;19.63;;;9.40;;
42196;SDS011;27866;48.146;17.098;2023-03-01T00:06:55;17.70;;;8.90;;
42196;SDS011;27866;48.146;17.098;2023-03-01T00:11:08;19.75;;;9.32;;
42196;SDS011;27866;48.146;17.098;2023-03-01T00:15:25;17.58;;;8.68;;
42196;SDS011;27866;48.146;17.098;2023-03-01T00:19:36;17.70;;;9.30;;
42196;SDS011;27866;48.146;17.098;2023-03-01T00:23:47;16.83;;;8.95;;
42196;SDS011;27866;48.146;17.098;2023-03-01T00:27:59;15.27;;;8.45;;
42196;SDS011;27866;48.146;17.098;2023-03-01T00:32:10;19.13;;;9.23;;
42196;SDS011;27866;48.146;17.098;2023-03-01T00:36:23;16.92;;;8.93;;
42196;SDS011;27866;48.146;17.098;2023-03-01T00:40:37;17.73;;;9.48;;
42196;SDS011;27866;48.146;17.098;2023-03-01T00:44:48;19.98;;;9.38;;
42196;SDS011;27866;48.146;17.098;2023-03-01T00:48:59;18.30;;;9.75;;
42196;SDS011;27866;48.146;17.098;2023-03-01T00:53:12;24.75;;;10.65;;
42196;SDS011;27866;48.146;17.098;2023-03-01T00:57:23;19.20;;;10.27;;
42196;SDS011;27866;48.146;17.098;2023-03-01T01:01:34;18.35;;;10.15;;
42196;SDS011;27866;48.146;17.098;2023-03-01T01:05:49;19.10;;;9.45;;
42196;SDS011;27866;48.146;17.098;2023-03-01T01:10:01;18.45;;;10.20;;
42196;SDS011;27866;48.146;17.098;2023-03-01T01:14:13;19.42;;;10.57;;
42196;SDS011;27866;48.146;17.098;2023-03-01T01:18:25;18.65;;;9.43;;
42196;SDS011;27866;48.146;17.098;2023-03-01T01:22:36;18.83;;;9.75;;
42196;SDS011;27866;48.146;17.098;2023-03-01T01:26:48;19.63;;;10.40;;
42196;SDS011;27866;48.146;17.098;2023-03-01T01:30:59;19.30;;;10.40;;
42196;SDS011;27866;48.146;17.098;2023-03-01T01:35:10;20.67;;;10.77;;
42196;SDS011;27866;48.146;17.098;2023-03-01T01:39:21;18.63;;;10.25;;
42196;SDS011;27866;48.146;17.098;2023-03-01T01:43:34;18.83;;;10.30;;
42196;SDS011;27866;48.146;17.098;2023-03-01T01:47:52;21.17;;;11.55;;
42196;SDS011;27866;48.146;17.098;2023-03-01T01:52:17;29.77;;;12.73;;
42196;SDS011;27866;48.146;17.098;2023-03-01T01:56:30;28.25;;;14.55;;
42196;SDS011;27866;48.146;17.098;2023-03-01T02:00:42;30.60;;;16.67;;
42196;SDS011;27866;48.146;17.098;2023-03-01T02:04:58;37.78;;;18.05;;
42196;SDS011;27866;48.146;17.098;2023-03-01T02:09:21;36.28;;;18.77;;
42196;SDS011;27866;48.146;17.098;2023-03-01T02:13:33;36.80;;;18.98;;
42196;SDS011;27866;48.146;17.098;2023-03-01T02:17:45;38.05;;;19.13;;
42196;SDS011;27866;48.146;17.098;2023-03-01T02:22:00;35.00;;;17.83;;
42196;SDS011;27866;48.146;17.098;2023-03-01T02:30:55;42.28;;;22.13;;
42196;SDS011;27866;48.146;17.098;2023-03-01T02:35:25;44.50;;;22.90;;
42196;SDS011;27866;48.146;17.098;2023-03-01T02:39:38;49.88;;;23.40;;
42196;SDS011;27866;48.146;17.098;2023-03-01T02:43:58;40.03;;;21.08;;
42196;SDS011;27866;48.146;17.098;2023-03-01T02:48:09;42.35;;;21.55;;
42196;SDS011;27866;48.146;17.098;2023-03-01T02:52:34;38.38;;;19.73;;
42196;SDS011;27866;48.146;17.098;2023-03-01T02:56:58;38.15;;;18.90;;
42196;SDS011;27866;48.146;17.098;2023-03-01T03:01:13;33.90;;;17.63;;
42196;SDS011;27866;48.146;17.098;2023-03-01T03:05:27;33.03;;;17.05;;
42196;SDS011;27866;48.146;17.098;2023-03-01T03:09:42;29.02;;;15.52;;
42196;SDS011;27866;48.146;17.098;2023-03-01T03:13:53;29.67;;;14.82;;
42196;SDS011;27866;48.146;17.098;2023-03-01T03:18:06;29.88;;;13.65;;
42196;SDS011;27866;48.146;17.098;2023-03-01T03:22:21;28.17;;;15.10;;
42196;SDS011;27866;48.146;17.098;2023-03-01T03:26:32;27.48;;;14.60;;
42196;SDS011;27866;48.146;17.098;2023-03-01T03:30:43;25.75;;;14.50;;
42196;SDS011;27866;48.146;17.098;2023-03-01T03:34:55;24.98;;;13.93;;
42196;SDS011;27866;48.146;17.098;2023-03-01T03:39:06;31.35;;;15.38;;
42196;SDS011;27866;48.146;17.098;2023-03-01T03:43:19;29.42;;;14.18;;
42196;SDS011;27866;48.146;17.098;2023-03-01T03:47:33;25.60;;;13.75;;
42196;SDS011;27866;48.146;17.098;2023-03-01T03:51:45;25.15;;;13.30;;
42196;SDS011;27866;48.146;17.098;2023-03-01T03:55:56;25.73;;;14.00;;
42196;SDS011;27866;48.146;17.098;2023-03-01T04:00:10;27.95;;;13.35;;
42196;SDS011;27866;48.146;17.098;2023-03-01T04:04:25;25.80;;;13.48;;
42196;SDS011;27866;48.146;17.098;2023-03-01T04:08:36;24.63;;;13.00;;
42196;SDS011;27866;48.146;17.098;2023-03-01T04:12:48;24.88;;;13.48;;
42196;SDS011;27866;48.146;17.098;2023-03-01T04:16:59;23.75;;;13.63;;
42196;SDS011;27866;48.146;17.098;2023-03-01T04:21:11;24.52;;;13.40;;
42196;SDS011;27866;48.146;17.098;2023-03-01T04:25:23;23.30;;;13.00;;
42196;SDS011;27866;48.146;17.098;2023-03-01T04:29:36;28.83;;;14.07;;
42196;SDS011;27866;48.146;17.098;2023-03-01T04:33:51;23.65;;;12.60;;
42196;SDS011;27866;48.146;17.098;2023-03-01T04:38:05;23.30;;;12.35;;
42196;SDS011;27866;48.146;17.098;2023-03-01T04:42:17;24.15;;;12.13;;
42196;SDS011;27866;48.146;17.098;2023-03-01T04:46:28;26.33;;;13.27;;
42196;SDS011;27866;48.146;17.098;2023-03-01T04:50:39;25.48;;;12.60;;
42196;SDS011;27866;48.146;17.098;2023-03-01T04:54:50;27.42;;;12.98;;
42196;SDS011;27866;48.146;17.098;2023-03-01T04:59:02;27.52;;;13.07;;
42196;SDS011;27866;48.146;17.098;2023-03-01T05:03:15;29.58;;;14.05;;
42196;SDS011;27866;48.146;17.098;2023-03-01T05:07:30;27.27;;;13.57;;
42196;SDS011;27866;48.146;17.098;2023-03-01T05:11:41;27.23;;;13.90;;
42196;SDS011;27866;48.146;17.098;2023-03-01T05:15:59;23.08;;;12.48;;
42196;SDS011;27866;48.146;17.098;2023-03-01T05:20:13;28.75;;;14.02;;
42196;SDS011;27866;48.146;17.098;2023-03-01T05:24:24;25.17;;;13.35;;
42196;SDS011;27866;48.146;17.098;2023-03-01T05:28:35;23.60;;;13.50;;
42196;SDS011;27866;48.146;17.098;2023-03-01T05:32:48;26.65;;;13.15;;
42196;SDS011;27866;48.146;17.098;2023-03-01T05:37:05;33.72;;;14.15;;
42196;SDS011;27866;48.146;17.098;2023-03-01T05:41:17;26.60;;;13.90;;
42196;SDS011;27866;48.146;17.098;2023-03-01T05:45:29;22.90;;;13.43;;
42196;SDS011;27866;48.146;17.098;2023-03-01T05:49:40;25.50;;;13.27;;
42196;SDS011;27866;48.146;17.098;2023-03-01T05:53:51;25.08;;;13.77;;
42196;SDS011;27866;48.146;17.098;2023-03-01T05:58:03;26.27;;;12.98;;
42196;SDS011;27866;48.146;17.098;2023-03-01T06:02:17;25.40;;;14.13;;
42196;SDS011;27866;48.146;17.098;2023-03-01T06:06:29;30.15;;;13.82;;
42196;SDS011;27866;48.146;17.098;2023-03-01T06:10:45;28.60;;;13.60;;
42196;SDS011;27866;48.146;17.098;2023-03-01T06:14:58;27.15;;;13.52;;
42196;SDS011;27866;48.146;17.098;2023-03-01T06:19:09;25.90;;;13.80;;
42196;SDS011;27866;48.146;17.098;2023-03-01T06:23:21;28.02;;;13.85;;
42196;SDS011;27866;48.146;17.098;2023-03-01T06:27:33;26.05;;;13.88;;
42196;SDS011;27866;48.146;17.098;2023-03-01T06:31:45;21.83;;;12.35;;
42196;SDS011;27866;48.146;17.098;2023-03-01T06:35:56;26.45;;;13.27;;
42196;SDS011;27866;48.146;17.098;2023-03-01T06:40:07;22.08;;;12.07;;
42196;SDS011;27866;48.146;17.098;2023-03-01T06:44:21;30.75;;;13.43;;
42196;SDS011;27866;48.146;17.098;2023-03-01T06:48:33;25.63;;;12.45;;
42196;SDS011;27866;48.146;17.098;2023-03-01T06:52:45;30.17;;;12.95;;
42196;SDS011;27866;48.146;17.098;2023-03-01T06:56:56;24.48;;;12.95;;
42196;SDS011;27866;48.146;17.098;2023-03-01T07:01:08;27.45;;;13.88;;
42196;SDS011;27866;48.146;17.098;2023-03-01T07:05:21;25.17;;;14.20;;
42196;SDS011;27866;48.146;17.098;2023-03-01T07:09:32;31.40;;;13.93;;
42196;SDS011;27866;48.146;17.098;2023-03-01T07:13:43;30.27;;;15.02;;
42196;SDS011;27866;48.146;17.098;2023-03-01T07:17:55;27.13;;;13.65;;
42196;SDS011;27866;48.146;17.098;2023-03-01T07:22:07;27.92;;;14.57;;
42196;SDS011;27866;48.146;17.098;2023-03-01T07:26:19;27.10;;;14.27;;
42196;SDS011;27866;48.146;17.098;2023-03-01T07:30:30;28.02;;;14.48;;
42196;SDS011;27866;48.146;17.098;2023-03-01T07:34:42;25.05;;;13.75;;
42196;SDS011;27866;48.146;17.098;2023-03-01T07:38:53;27.77;;;13.88;;
42196;SDS011;27866;48.146;17.098;2023-03-01T07:43:06;26.27;;;13.30;;
42196;SDS011;27866;48.146;17.098;2023-03-01T07:47:17;25.42;;;12.45;;
42196;SDS011;27866;48.146;17.098;2023-03-01T07:51:28;23.40;;;12.07;;
42196;SDS011;27866;48.146;17.098;2023-03-01T07:55:39;24.88;;;11.85;;
42196;SDS011;27866;48.146;17.098;2023-03-01T07:59:51;24.30;;;12.85;;
42196;SDS011;27866;48.146;17.098;2023-03-01T08:04:02;27.02;;;13.85;;
42196;SDS011;27866;48.146;17.098;2023-03-01T08:08:17;23.65;;;12.80;;
42196;SDS011;27866;48.146;17.098;2023-03-01T08:12:28;25.23;;;13.68;;
42196;SDS011;27866;48.146;17.098;2023-03-01T08:16:40;24.85;;;13.88;;
42196;SDS011;27866;48.146;17.098;2023-03-01T08:20:51;26.70;;;15.05;;
42196;SDS011;27866;48.146;17.098;2023-03-01T08:25:02;26.48;;;15.15;;
42196;SDS011;27866;48.146;17.098;2023-03-01T08:29:14;27.70;;;13.93;;
42196;SDS011;27866;48.146;17.098;2023-03-01T08:33:25;26.50;;;13.20;;
42196;SDS011;27866;48.146;17.098;2023-03-01T08:37:37;25.38;;;13.27;;
42196;SDS011;27866;48.146;17.098;2023-03-01T08:41:48;24.73;;;13.35;;
42196;SDS011;27866;48.146;17.098;2023-03-01T08:45:59;25.42;;;13.48;;
42196;SDS011;27866;48.146;17.098;2023-03-01T08:50:11;25.15;;;13.48;;
42196;SDS011;27866;48.146;17.098;2023-03-01T08:54:23;22.77;;;12.02;;
42196;SDS011;27866;48.146;17.098;2023-03-01T08:58:35;21.00;;;11.68;;
42196;SDS011;27866;48.146;17.098;2023-03-01T09:02:47;25.48;;;11.35;;
42196;SDS011;27866;48.146;17.098;2023-03-01T09:06:58;19.23;;;11.85;;
42196;SDS011;27866;48.146;17.098;2023-03-01T09:11:10;17.05;;;11.73;;
42196;SDS011;27866;48.146;17.098;2023-03-01T09:15:26;16.98;;;10.65;;
42196;SDS011;27866;48.146;17.098;2023-03-01T09:19:37;17.10;;;11.75;;
42196;SDS011;27866;48.146;17.098;2023-03-01T09:23:49;19.40;;;12.43;;
42196;SDS011;27866;48.146;17.098;2023-03-01T09:28:00;23.67;;;11.95;;
42196;SDS011;27866;48.146;17.098;2023-03-01T09:32:12;19.35;;;11.57;;
42196;SDS011;27866;48.146;17.098;2023-03-01T09:36:24;18.83;;;11.82;;
42196;SDS011;27866;48.146;17.098;2023-03-01T09:40:42;15.60;;;11.02;;
42196;SDS011;27866;48.146;17.098;2023-03-01T09:45:10;16.23;;;11.60;;
42196;SDS011;27866;48.146;17.098;2023-03-01T09:49:33;16.63;;;10.57;;
42196;SDS011;27866;48.146;17.098;2023-03-01T09:53:49;20.23;;;11.57;;
42196;SDS011;27866;48.146;17.098;2023-03-01T10:02:41;21.13;;;11.70;;
42196;SDS011;27866;48.146;17.098;2023-03-01T10:11:21;21.17;;;11.63;;
42196;SDS011;27866;48.146;17.098;2023-03-01T10:15:36;21.85;;;11.88;;
42196;SDS011;27866;48.146;17.098;2023-03-01T10:19:55;16.77;;;10.95;;
42196;SDS011;27866;48.146;17.098;2023-03-01T10:24:37;20.90;;;11.43;;
42196;SDS011;27866;48.146;17.098;2023-03-01T10:28:52;18.60;;;11.40;;
42196;SDS011;27866;48.146;17.098;2023-03-01T10:37:56;22.13;;;10.45;;
42196;SDS011;27866;48.146;17.098;2023-03-01T10:42:19;21.02;;;10.13;;
42196;SDS011;27866;48.146;17.098;2023-03-01T10:46:43;17.35;;;10.50;;
42196;SDS011;27866;48.146;17.098;2023-03-01T10:51:05;16.10;;;9.68;;
42196;SDS011;27866;48.146;17.098;2023-03-01T10:55:23;14.02;;;8.48;;
42196;SDS011;27866;48.146;17.098;2023-03-01T10:59:45;18.02;;;9.15;;
42196;SDS011;27866;48.146;17.098;2023-03-01T11:04:33;15.73;;;9.50;;
42196;SDS011;27866;48.146;17.098;2023-03-01T11:08:45;14.23;;;8.25;;
42196;SDS011;27866;48.146;17.098;2023-03-01T11:13:08;13.65;;;8.70;;
42196;SDS011;27866;48.146;17.098;2023-03-01T11:17:29;17.65;;;9.00;;
42196;SDS011;27866;48.146;17.098;2023-03-01T11:21:46;16.85;;;9.98;;
42196;SDS011;27866;48.146;17.098;2023-03-01T11:26:12;15.02;;;8.63;;
42196;SDS011;27866;48.146;17.098;2023-03-01T11:30:27;14.10;;;9.13;;
42196;SDS011;27866;48.146;17.098;2023-03-01T11:34:53;17.60;;;9.57;;
42196;SDS011;27866;48.146;17.098;2023-03-01T11:40:13;15.27;;;9.63;;
42196;SDS011;27866;48.146;17.098;2023-03-01T11:44:34;14.27;;;9.23;;
42196;SDS011;27866;48.146;17.098;2023-03-01T11:54:03;16.98;;;10.07;;
42196;SDS011;27866;48.146;17.098;2023-03-01T12:08:47;15.73;;;9.15;;
42196;SDS011;27866;48.146;17.098;2023-03-01T12:21:54;15.75;;;9.38;;
42196;SDS011;27866;48.146;17.098;2023-03-01T12:40:33;18.70;;;10.57;;
42196;SDS011;27866;48.146;17.098;2023-03-01T12:44:55;15.95;;;10.07;;
42196;SDS011;27866;48.146;17.098;2023-03-01T12:49:24;14.65;;;10.15;;
42196;SDS011;27866;48.146;17.098;2023-03-01T12:53:53;14.95;;;9.57;;
42196;SDS011;27866;48.146;17.098;2023-03-01T13:02:55;17.45;;;10.52;;
42196;SDS011;27866;48.146;17.098;2023-03-01T13:07:41;24.33;;;10.27;;
42196;SDS011;27866;48.146;17.098;2023-03-01T13:17:20;13.98;;;9.50;;
42196;SDS011;27866;48.146;17.098;2023-03-01T13:21:52;20.83;;;9.80;;
42196;SDS011;27866;48.146;17.098;2023-03-01T13:26:15;16.70;;;10.02;;
42196;SDS011;27866;48.146;17.098;2023-03-01T13:34:46;15.38;;;9.95;;
42196;SDS011;27866;48.146;17.098;2023-03-01T13:39:01;18.30;;;9.30;;
42196;SDS011;27866;48.146;17.098;2023-03-01T13:43:36;13.85;;;8.73;;
42196;SDS011;27866;48.146;17.098;2023-03-01T13:48:33;16.17;;;9.65;;
42196;SDS011;27866;48.146;17.098;2023-03-01T13:52:48;15.77;;;9.43;;
42196;SDS011;27866;48.146;17.098;2023-03-01T13:57:03;14.70;;;8.30;;
42196;SDS011;27866;48.146;17.098;2023-03-01T14:01:21;16.92;;;7.75;;
42196;SDS011;27866;48.146;17.098;2023-03-01T14:06:00;13.98;;;8.75;;
42196;SDS011;27866;48.146;17.098;2023-03-01T14:10:44;12.65;;;8.40;;
42196;SDS011;27866;48.146;17.098;2023-03-01T14:19:59;17.02;;;8.82;;
42196;SDS011;27866;48.146;17.098;2023-03-01T14:24:21;12.50;;;9.23;;
42196;SDS011;27866;48.146;17.098;2023-03-01T14:28:33;15.02;;;7.85;;
42196;SDS011;27866;48.146;17.098;2023-03-01T14:32:56;11.90;;;6.95;;
42196;SDS011;27866;48.146;17.098;2023-03-01T14:37:31;9.57;;;7.10;;
42196;SDS011;27866;48.146;17.098;2023-03-01T14:41:44;10.43;;;6.88;;
42196;SDS011;27866;48.146;17.098;2023-03-01T14:45:56;10.60;;;6.47;;
42196;SDS011;27866;48.146;17.098;2023-03-01T14:50:09;10.57;;;6.50;;
42196;SDS011;27866;48.146;17.098;2023-03-01T14:54:43;10.48;;;6.25;;
42196;SDS011;27866;48.146;17.098;2023-03-01T14:58:59;11.40;;;6.80;;
42196;SDS011;27866;48.146;17.098;2023-03-01T15:03:13;12.10;;;6.13;;
42196;SDS011;27866;48.146;17.098;2023-03-01T15:07:35;11.70;;;5.32;;
42196;SDS011;27866;48.146;17.098;2023-03-01T15:11:51;13.55;;;5.82;;
42196;SDS011;27866;48.146;17.098;2023-03-01T15:16:10;13.20;;;6.07;;
42196;SDS011;27866;48.146;17.098;2023-03-01T15:20:30;16.15;;;6.32;;
42196;SDS011;27866;48.146;17.098;2023-03-01T15:24:46;10.27;;;5.45;;
42196;SDS011;27866;48.146;17.098;2023-03-01T15:33:33;7.93;;;5.00;;
42196;SDS011;27866;48.146;17.098;2023-03-01T15:37:49;8.77;;;5.28;;
42196;SDS011;27866;48.146;17.098;2023-03-01T15:42:01;16.17;;;5.53;;
42196;SDS011;27866;48.146;17.098;2023-03-01T15:46:22;25.17;;;6.78;;
42196;SDS011;27866;48.146;17.098;2023-03-01T15:50:42;25.58;;;6.78;;
42196;SDS011;27866;48.146;17.098;2023-03-01T15:55:01;17.35;;;6.07;;
42196;SDS011;27866;48.146;17.098;2023-03-01T15:59:16;34.60;;;11.25;;
42196;SDS011;27866;48.146;17.098;2023-03-01T16:03:28;36.28;;;8.73;;
42196;SDS011;27866;48.146;17.098;2023-03-01T16:07:40;24.27;;;7.80;;
42196;SDS011;27866;48.146;17.098;2023-03-01T16:11:52;22.67;;;7.95;;
42196;SDS011;27866;48.146;17.098;2023-03-01T16:16:04;22.58;;;6.88;;
42196;SDS011;27866;48.146;17.098;2023-03-01T16:20:16;19.83;;;7.68;;
42196;SDS011;27866;48.146;17.098;2023-03-01T16:24:27;19.60;;;7.00;;
42196;SDS011;27866;48.146;17.098;2023-03-01T16:28:40;13.80;;;7.28;;
42196;SDS011;27866;48.146;17.098;2023-03-01T16:32:52;19.80;;;6.90;;
42196;SDS011;27866;48.146;17.098;2023-03-01T16:37:04;19.10;;;8.02;;
42196;SDS011;27866;48.146;17.098;2023-03-01T16:41:16;16.33;;;7.30;;
42196;SDS011;27866;48.146;17.098;2023-03-01T16:45:34;21.27;;;7.35;;
42196;SDS011;27866;48.146;17.098;2023-03-01T16:49:46;14.25;;;7.20;;
42196;SDS011;27866;48.146;17.098;2023-03-01T16:53:57;18.35;;;8.05;;
42196;SDS011;27866;48.146;17.098;2023-03-01T16:58:08;16.88;;;6.93;;
42196;SDS011;27866;48.146;17.098;2023-03-01T17:02:20;16.25;;;6.85;;
42196;SDS011;27866;48.146;17.098;2023-03-01T17:06:31;13.25;;;6.90;;
42196;SDS011;27866;48.146;17.098;2023-03-01T17:10:43;19.23;;;8.52;;
42196;SDS011;27866;48.146;17.098;2023-03-01T17:14:54;23.50;;;10.27;;
42196;SDS011;27866;48.146;17.098;2023-03-01T17:19:05;24.58;;;12.65;;
42196;SDS011;27866;48.146;17.098;2023-03-01T17:23:17;21.13;;;12.02;;
42196;SDS011;27866;48.146;17.098;2023-03-01T17:27:28;23.60;;;12.23;;
42196;SDS011;27866;48.146;17.098;2023-03-01T17:31:39;24.05;;;11.77;;
42196;SDS011;27866;48.146;17.098;2023-03-01T17:35:51;28.45;;;11.85;;
42196;SDS011;27866;48.146;17.098;2023-03-01T17:40:02;21.77;;;11.85;;
42196;SDS011;27866;48.146;17.098;2023-03-01T17:44:14;24.58;;;12.25;;
42196;SDS011;27866;48.146;17.098;2023-03-01T17:48:25;27.23;;;13.60;;
42196;SDS011;27866;48.146;17.098;2023-03-01T17:52:37;30.55;;;14.77;;
42196;SDS011;27866;48.146;17.098;2023-03-01T17:56:48;29.75;;;14.65;;
42196;SDS011;27866;48.146;17.098;2023-03-01T18:01:07;27.05;;;14.68;;
42196;SDS011;27866;48.146;17.098;2023-03-01T18:05:27;32.58;;;14.82;;
42196;SDS011;27866;48.146;17.098;2023-03-01T18:09:46;25.27;;;14.27;;
42196;SDS011;27866;48.146;17.098;2023-03-01T18:13:58;26.88;;;15.27;;
42196;SDS011;27866;48.146;17.098;2023-03-01T18:18:09;28.10;;;14.45;;
42196;SDS011;27866;48.146;17.098;2023-03-01T18:22:20;24.90;;;14.07;;
42196;SDS011;27866;48.146;17.098;2023-03-01T18:26:32;27.02;;;14.70;;
42196;SDS011;27866;48.146;17.098;2023-03-01T18:30:44;34.83;;;16.20;;
42196;SDS011;27866;48.146;17.098;2023-03-01T18:34:55;37.42;;;16.30;;
42196;SDS011;27866;48.146;17.098;2023-03-01T18:39:06;30.80;;;15.77;;
42196;SDS011;27866;48.146;17.098;2023-03-01T18:43:18;33.08;;;15.95;;
42196;SDS011;27866;48.146;17.098;2023-03-01T18:47:29;30.50;;;16.58;;
42196;SDS011;27866;48.146;17.098;2023-03-01T18:51:41;30.50;;;15.27;;
42196;SDS011;27866;48.146;17.098;2023-03-01T18:55:57;30.95;;;15.95;;
42196;SDS011;27866;48.146;17.098;2023-03-01T19:00:09;30.25;;;15.40;;
42196;SDS011;27866;48.146;17.098;2023-03-01T19:04:22;27.95;;;14.15;;
42196;SDS011;27866;48.146;17.098;2023-03-01T19:08:33;24.38;;;13.25;;
42196;SDS011;27866;48.146;17.098;2023-03-01T19:12:44;24.15;;;12.57;;
42196;SDS011;27866;48.146;17.098;2023-03-01T19:16:56;21.80;;;11.63;;
42196;SDS011;27866;48.146;17.098;2023-03-01T19:21:08;25.67;;;11.90;;
42196;SDS011;27866;48.146;17.098;2023-03-01T19:25:21;28.43;;;12.30;;
42196;SDS011;27866;48.146;17.098;2023-03-01T19:29:32;22.67;;;11.52;;
42196;SDS011;27866;48.146;17.098;2023-03-01T19:33:44;24.27;;;11.57;;
42196;SDS011;27866;48.146;17.098;2023-03-01T19:37:57;22.83;;;11.15;;
42196;SDS011;27866;48.146;17.098;2023-03-01T19:42:08;19.23;;;10.30;;
42196;SDS011;27866;48.146;17.098;2023-03-01T19:46:21;29.60;;;10.85;;
42196;SDS011;27866;48.146;17.098;2023-03-01T19:50:33;21.73;;;9.77;;
42196;SDS011;27866;48.146;17.098;2023-03-01T19:54:44;19.77;;;9.38;;
42196;SDS011;27866;48.146;17.098;2023-03-01T19:58:56;14.77;;;8.52;;
42196;SDS011;27866;48.146;17.098;2023-03-01T20:03:09;16.50;;;8.40;;
42196;SDS011;27866;48.146;17.098;2023-03-01T20:07:21;22.58;;;8.82;;
42196;SDS011;27866;48.146;17.098;2023-03-01T20:11:32;20.70;;;7.57;;
42196;SDS011;27866;48.146;17.098;2023-03-01T20:15:44;17.85;;;8.80;;
42196;SDS011;27866;48.146;17.098;2023-03-01T20:19:55;16.30;;;9.13;;
42196;SDS011;27866;48.146;17.098;2023-03-01T20:24:06;19.23;;;8.85;;
42196;SDS011;27866;48.146;17.098;2023-03-01T20:28:18;17.50;;;9.18;;
42196;SDS011;27866;48.146;17.098;2023-03-01T20:32:30;15.73;;;9.43;;
42196;SDS011;27866;48.146;17.098;2023-03-01T20:36:42;21.33;;;10.00;;
42196;SDS011;27866;48.146;17.098;2023-03-01T20:41:00;17.23;;;8.95;;
42196;SDS011;27866;48.146;17.098;2023-03-01T20:45:17;17.37;;;9.93;;
42196;SDS011;27866;48.146;17.098;2023-03-01T20:49:28;21.10;;;10.90;;
42196;SDS011;27866;48.146;17.098;2023-03-01T20:53:40;21.85;;;11.27;;
42196;SDS011;27866;48.146;17.098;2023-03-01T20:57:51;26.23;;;12.07;;
42196;SDS011;27866;48.146;17.098;2023-03-01T21:02:02;26.15;;;12.77;;
42196;SDS011;27866;48.146;17.098;2023-03-01T21:06:14;24.42;;;12.85;;
42196;SDS011;27866;48.146;17.098;2023-03-01T21:10:25;27.83;;;12.90;;
42196;SDS011;27866;48.146;17.098;2023-03-01T21:14:36;24.13;;;12.27;;
42196;SDS011;27866;48.146;17.098;2023-03-01T21:18:51;25.40;;;12.98;;
42196;SDS011;27866;48.146;17.098;2023-03-01T21:23:03;27.10;;;12.30;;
42196;SDS011;27866;48.146;17.098;2023-03-01T21:27:14;23.60;;;12.50;;
42196;SDS011;27866;48.146;17.098;2023-03-01T21:31:30;22.33;;;11.45;;
42196;SDS011;27866;48.146;17.098;2023-03-01T21:35:44;23.80;;;11.88;;
42196;SDS011;27866;48.146;17.098;2023-03-01T21:39:55;21.48;;;12.25;;
42196;SDS011;27866;48.146;17.098;2023-03-01T21:44:06;22.95;;;12.43;;
42196;SDS011;27866;48.146;17.098;2023-03-01T21:48:18;23.02;;;12.48;;
42196;SDS011;27866;48.146;17.098;2023-03-01T21:52:29;25.92;;;13.57;;
42196;SDS011;27866;48.146;17.098;2023-03-01T21:56:41;21.58;;;11.65;;
42196;SDS011;27866;48.146;17.098;2023-03-01T22:00:54;23.20;;;11.63;;
42196;SDS011;27866;48.146;17.098;2023-03-01T22:05:06;36.83;;;12.68;;
42196;SDS011;27866;48.146;17.098;2023-03-01T22:09:18;21.75;;;11.70;;
42196;SDS011;27866;48.146;17.098;2023-03-01T22:13:32;20.80;;;11.60;;
42196;SDS011;27866;48.146;17.098;2023-03-01T22:17:44;26.70;;;11.20;;
42196;SDS011;27866;48.146;17.098;2023-03-01T22:21:55;21.95;;;10.80;;
42196;SDS011;27866;48.146;17.098;2023-03-01T22:26:07;20.80;;;10.85;;
42196;SDS011;27866;48.146;17.098;2023-03-01T22:30:29;22.27;;;11.03;;
42196;SDS011;27866;48.146;17.098;2023-03-01T22:34:43;21.17;;;10.85;;
42196;SDS011;27866;48.146;17.098;2023-03-01T22:38:54;24.05;;;10.98;;
42196;SDS011;27866;48.146;17.098;2023-03-01T22:43:09;19.80;;;9.95;;
42196;SDS011;27866;48.146;17.098;2023-03-01T22:47:20;24.48;;;10.20;;
42196;SDS011;27866;48.146;17.098;2023-03-01T22:51:33;19.98;;;10.70;;
42196;SDS011;27866;48.146;17.098;2023-03-01T22:55:47;27.70;;;12.27;;
42196;SDS011;27866;48.146;17.098;2023-03-01T22:59:58;24.20;;;12.23;;
42196;SDS011;27866;48.146;17.098;2023-03-01T23:04:10;26.90;;;13.80;;
42196;SDS011;27866;48.146;17.098;2023-03-01T23:08:22;28.17;;;13.38;;
42196;SDS011;27866;48.146;17.098;2023-03-01T23:12:33;25.73;;;12.85;;
42196;SDS011;27866;48.146;17.098;2023-03-01T23:16:44;28.05;;;13.48;;
42196;SDS011;27866;48.146;17.098;2023-03-01T23:20:56;25.90;;;12.82;;
42196;SDS011;27866;48.146;17.098;2023-03-01T23:25:08;22.60;;;12.77;;
42196;SDS011;27866;48.146;17.098;2023-03-01T23:29:22;23.77;;;11.98;;
42196;SDS011;27866;48.146;17.098;2023-03-01T23:33:33;26.02;;;13.13;;
42196;SDS011;27866;48.146;17.098;2023-03-01T23:37:48;28.25;;;12.50;;
42196;SDS011;27866;48.146;17.098;2023-03-01T23:41:59;26.20;;;12.63;;
42196;SDS011;27866;48.146;17.098;2023-03-01T23:46:11;26.48;;;13.32;;
42196;SDS011;27866;48.146;17.098;2023-03-01T23:50:24;28.83;;;14.00;;
42196;SDS011;27866;48.146;17.098;2023-03-01T23:54:35;26.80;;;13.45;;
42196;SDS011;27866;48.146;17.098;2023-03-01T23:58:46;27.50;;;13.27;;
